Pilot, Virginia
Current Conditions -  °F | °C
As of 1:15 AM on Sunday 26 Oct 2014 (Local Time) from KBCB Reporting Station
Scattered Clouds Scattered Clouds  
Wind Chill: 14°   Ceiling: Unl
Heat Index: 14°   Visibility: 10mi
Dew Point: 11°   Wind: 5mph
Humidity: 82%   Direction: 260°W
Pressure: 29.9"   Gusts: NA
Location:  37.05°N, 80.36°W
Report Text: KBCB 260515Z AUTO 26004KT 10SM SCT032 14/11 A2990 RMK AO2
Loading
Personal Weather Stations






























Interactive Weather Map
Tropical Storm Tracking
New forecast layout! Learn more

10-Day Weather Forecast

Advertisements
Track Severe Weather on mobile